createdAt,value
2019-01-08T00:03:00.576Z,956.5
2019-01-08T00:06:06.536Z,956.5
2019-01-08T00:09:12.498Z,956.6
2019-01-08T00:12:18.459Z,956.5
2019-01-08T00:15:24.326Z,956.5
2019-01-08T00:18:30.274Z,956.5
2019-01-08T00:21:36.167Z,956.5
2019-01-08T00:24:42.195Z,956.4
2019-01-08T00:27:48.266Z,956.5
2019-01-08T00:30:54.235Z,956.5
2019-01-08T00:34:00.175Z,956.5
2019-01-08T00:37:06.104Z,956.4
2019-01-08T00:40:12.100Z,956.5
2019-01-08T00:43:18.051Z,956.5
2019-01-08T00:46:24.008Z,956.4
2019-01-08T00:49:29.971Z,956.4
2019-01-08T00:52:35.842Z,956.3
2019-01-08T00:55:41.796Z,956.3
2019-01-08T00:58:52.874Z,956.2
2019-01-08T01:01:58.938Z,956.2
2019-01-08T01:05:04.885Z,956.2
2019-01-08T01:08:10.967Z,956.1
2019-01-08T01:11:17.037Z,956.1
2019-01-08T01:14:22.968Z,956.1
2019-01-08T01:17:28.927Z,956.1
2019-01-08T01:20:34.892Z,956.1
2019-01-08T01:23:40.864Z,956.1
2019-01-08T01:26:46.810Z,956.1
2019-01-08T01:29:52.691Z,956.1
2019-01-08T01:32:58.826Z,956.1
2019-01-08T01:36:07.346Z,956
2019-01-08T01:39:13.317Z,956.1
2019-01-08T01:42:19.268Z,956.1
2019-01-08T01:45:25.239Z,956
2019-01-08T01:48:31.197Z,956
2019-01-08T01:51:39.525Z,956
2019-01-08T01:54:45.608Z,956
2019-01-08T01:57:51.629Z,956
2019-01-08T02:00:57.585Z,955.9
2019-01-08T02:04:03.542Z,955.9
2019-01-08T02:07:09.705Z,955.9
2019-01-08T02:10:15.574Z,955.9
2019-01-08T02:13:21.551Z,955.8
2019-01-08T02:16:27.706Z,955.8
2019-01-08T02:19:33.648Z,955.7
2019-01-08T02:22:39.604Z,955.7
2019-01-08T02:25:45.558Z,955.7
2019-01-08T02:28:51.519Z,955.6
2019-01-08T02:31:57.610Z,955.6
2019-01-08T02:35:03.573Z,955.5
2019-01-08T02:38:09.650Z,955.4
2019-01-08T02:41:15.856Z,955.5
2019-01-08T02:44:22.415Z,955.4
2019-01-08T02:47:28.566Z,955.4
2019-01-08T02:50:34.432Z,955.3
2019-01-08T02:53:40.531Z,955.3
2019-01-08T02:56:46.412Z,955.2
2019-01-08T02:59:52.441Z,955.2
2019-01-08T03:02:58.312Z,955.2
2019-01-08T03:06:04.473Z,955.2
2019-01-08T03:09:10.528Z,955.2
2019-01-08T03:12:16.411Z,955.2
2019-01-08T03:15:22.391Z,955.2
2019-01-08T03:18:28.263Z,955.2
2019-01-08T03:21:34.262Z,955.2
2019-01-08T03:24:40.323Z,955.2
2019-01-08T03:27:46.381Z,955.1
2019-01-08T03:30:52.259Z,955.2
2019-01-08T03:33:58.197Z,955.1
2019-01-08T03:37:04.159Z,955.1
2019-01-08T03:40:10.117Z,955.1
2019-01-08T03:43:16.005Z,955.1
2019-01-08T03:46:21.931Z,955.1
2019-01-08T03:49:27.891Z,955
2019-01-08T03:52:33.901Z,955.1
2019-01-08T03:55:39.817Z,955
2019-01-08T03:58:48.384Z,955.1
2019-01-08T04:01:54.258Z,954.9
2019-01-08T04:05:00.248Z,954.9
2019-01-08T04:08:06.135Z,954.8
2019-01-08T04:11:12.166Z,954.8
2019-01-08T04:14:20.994Z,954.8
2019-01-08T04:17:26.968Z,954.8
2019-01-08T04:20:33.089Z,954.8
2019-01-08T04:23:39.075Z,954.7
2019-01-08T04:26:45.037Z,954.7
2019-01-08T04:29:51.915Z,954.7
2019-01-08T04:32:57.798Z,954.6
2019-01-08T04:36:03.732Z,954.6
2019-01-08T04:39:09.696Z,954.6
2019-01-08T04:42:15.657Z,954.5
2019-01-08T04:45:21.711Z,954.5
2019-01-08T04:48:30.339Z,954.5
2019-01-08T04:51:36.232Z,954.6
2019-01-08T04:54:42.149Z,954.6
2019-01-08T04:57:48.022Z,954.5
2019-01-08T05:00:53.966Z,954.5
2019-01-08T05:03:59.839Z,954.5
2019-01-08T05:07:05.884Z,954.5
2019-01-08T05:10:11.949Z,954.5
2019-01-08T05:13:17.820Z,954.4
2019-01-08T05:16:23.768Z,954.5
2019-01-08T05:19:29.652Z,954.6
2019-01-08T05:22:35.584Z,954.5
2019-01-08T05:25:41.580Z,954.5
2019-01-08T05:28:47.434Z,954.4
2019-01-08T05:31:53.470Z,954.4
2019-01-08T05:34:59.416Z,954.3
2019-01-08T05:38:05.548Z,954.4
2019-01-08T05:41:11.405Z,954.4
2019-01-08T05:44:17.276Z,954.5
2019-01-08T05:47:23.285Z,954.3
2019-01-08T05:50:29.224Z,954.3
2019-01-08T05:53:35.290Z,954.3
2019-01-08T05:56:41.276Z,954.3
2019-01-08T05:59:47.228Z,954.4
2019-01-08T06:02:53.323Z,954.4
2019-01-08T06:05:59.419Z,954.4
2019-01-08T06:09:05.293Z,954.3
2019-01-08T06:12:11.252Z,954.3
2019-01-08T06:15:17.304Z,954.3
2019-01-08T06:18:23.190Z,954.3
2019-01-08T06:21:29.224Z,954.3
2019-01-08T06:24:37.848Z,954.3
2019-01-08T06:27:43.800Z,954.2
2019-01-08T06:30:49.810Z,954.2
2019-01-08T06:33:55.714Z,954.3
2019-01-08T06:37:01.681Z,954.3
2019-01-08T06:40:07.703Z,954.3
2019-01-08T06:43:13.522Z,954.3
2019-01-08T06:46:21.245Z,954.3
2019-01-08T06:49:27.207Z,954.2
2019-01-08T06:52:35.060Z,954.2
2019-01-08T06:55:41.031Z,954.2
2019-01-08T06:58:47.002Z,954.2
2019-01-08T07:01:53.964Z,954.2
2019-01-08T07:04:59.969Z,954.1
2019-01-08T07:08:05.979Z,954.1
2019-01-08T07:11:11.973Z,954.1
2019-01-08T07:14:17.871Z,954
2019-01-08T07:17:26.518Z,954.1
2019-01-08T07:20:32.548Z,954
2019-01-08T07:23:38.604Z,953.9
2019-01-08T07:26:44.507Z,953.9
2019-01-08T07:29:50.462Z,953.9
2019-01-08T07:32:56.349Z,953.9
2019-01-08T07:36:02.289Z,953.9
2019-01-08T07:39:08.241Z,953.9
2019-01-08T07:42:14.249Z,953.9
2019-01-08T07:45:20.170Z,954
2019-01-08T07:48:26.121Z,953.9
2019-01-08T07:51:32.004Z,953.9
2019-01-08T07:54:38.089Z,953.9
2019-01-08T07:57:44.048Z,953.8
2019-01-08T08:00:51.670Z,953.9
2019-01-08T08:03:57.655Z,953.8
2019-01-08T08:07:03.615Z,953.8
2019-01-08T08:10:09.577Z,953.8
2019-01-08T08:13:15.546Z,953.8
2019-01-08T08:16:24.259Z,953.8
2019-01-08T08:19:30.219Z,953.7
2019-01-08T08:22:36.098Z,953.7
2019-01-08T08:25:42.002Z,953.6
2019-01-08T08:28:47.993Z,953.7
2019-01-08T08:31:53.933Z,953.7
2019-01-08T08:35:08.938Z,953.6
2019-01-08T08:38:14.986Z,953.5
2019-01-08T08:41:20.998Z,953.4
2019-01-08T08:44:27.004Z,953.4
2019-01-08T08:47:32.888Z,953.4
2019-01-08T08:50:38.821Z,953.5
2019-01-08T08:53:53.538Z,953.4
2019-01-08T08:57:02.648Z,953.3
2019-01-08T09:00:08.526Z,953.2
2019-01-08T09:03:14.491Z,953.2
2019-01-08T09:06:20.359Z,953.1
2019-01-08T09:09:26.308Z,953.1
2019-01-08T09:12:32.261Z,953.1
2019-01-08T09:15:38.275Z,953
2019-01-08T09:18:44.332Z,952.9
2019-01-08T09:21:51.265Z,952.9
2019-01-08T09:24:57.204Z,952.8
2019-01-08T09:28:03.233Z,952.7
2019-01-08T09:31:16.720Z,952.7
2019-01-08T09:34:22.744Z,952.7
2019-01-08T09:37:28.640Z,952.5
2019-01-08T09:40:34.651Z,952.5
2019-01-08T09:43:40.523Z,952.4
2019-01-08T09:46:46.467Z,952.3
2019-01-08T09:49:52.341Z,952.4
2019-01-08T09:52:58.387Z,952.3
2019-01-08T09:56:04.353Z,952.3
2019-01-08T09:59:10.431Z,952.1
2019-01-08T10:02:16.478Z,952.1
2019-01-08T10:05:22.344Z,951.9
2019-01-08T10:08:28.386Z,951.9
2019-01-08T10:11:34.295Z,951.8
2019-01-08T10:14:40.202Z,951.7
2019-01-08T10:17:46.082Z,951.7
2019-01-08T10:20:51.964Z,951.6
2019-01-08T10:23:57.942Z,951.5
2019-01-08T10:27:05.783Z,951.4
2019-01-08T10:30:11.946Z,951.4
2019-01-08T10:33:17.906Z,951.3
2019-01-08T10:36:24.024Z,951.2
2019-01-08T10:39:29.997Z,951.1
2019-01-08T10:42:38.727Z,951
2019-01-08T10:45:44.713Z,950.9
2019-01-08T10:48:50.598Z,950.9
2019-01-08T10:51:56.558Z,950.8
2019-01-08T10:55:04.747Z,950.7
2019-01-08T10:58:10.810Z,950.7
2019-01-08T11:01:16.869Z,950.6
2019-01-08T11:04:22.983Z,950.4
2019-01-08T11:07:30.147Z,950.4
2019-01-08T11:10:38.037Z,950.4
2019-01-08T11:13:43.906Z,950.3
2019-01-08T11:16:51.954Z,950.3
2019-01-08T11:20:01.329Z,950.2
2019-01-08T11:23:07.415Z,950.2
2019-01-08T11:26:13.610Z,950
2019-01-08T11:29:19.644Z,949.9
2019-01-08T11:32:25.585Z,949.9
2019-01-08T11:35:32.068Z,949.8
2019-01-08T11:38:46.317Z,949.8
2019-01-08T11:41:53.352Z,949.7
2019-01-08T11:44:59.349Z,949.7
2019-01-08T11:48:05.611Z,949.7
2019-01-08T11:51:11.554Z,949.7
2019-01-08T11:54:17.534Z,949.5
2019-01-08T11:57:23.491Z,949.5
2019-01-08T12:00:29.552Z,949.4
2019-01-08T12:03:35.519Z,949.4
2019-01-08T12:06:41.830Z,949.4
2019-01-08T12:09:47.841Z,949.3
2019-01-08T12:12:53.874Z,949.2
2019-01-08T12:15:59.864Z,949.1
2019-01-08T12:19:06.848Z,949.1
2019-01-08T12:22:15.627Z,949.1
2019-01-08T12:25:21.651Z,949.1
2019-01-08T12:28:27.834Z,949
2019-01-08T12:31:34.342Z,949
2019-01-08T12:34:40.274Z,949
2019-01-08T12:37:47.216Z,948.9
2019-01-08T12:40:53.125Z,948.9
2019-01-08T12:43:59.237Z,948.9
2019-01-08T12:47:05.444Z,948.8
2019-01-08T12:50:11.571Z,948.8
2019-01-08T12:53:17.545Z,948.8
2019-01-08T12:56:24.585Z,948.7
2019-01-08T12:59:32.557Z,948.7
2019-01-08T13:02:38.581Z,948.6
2019-01-08T13:05:44.643Z,948.6
2019-01-08T13:08:50.601Z,948.5
2019-01-08T13:11:56.570Z,948.5
2019-01-08T13:15:02.620Z,948.4
2019-01-08T13:18:08.573Z,948.4
2019-01-08T13:21:14.635Z,948.3
2019-01-08T13:24:20.697Z,948.3
2019-01-08T13:27:27.555Z,948.3
2019-01-08T13:30:33.596Z,948.2
2019-01-08T13:33:39.620Z,948.3
2019-01-08T13:36:46.582Z,948.2
2019-01-08T13:39:52.465Z,948.2
2019-01-08T13:43:00.360Z,948.2
2019-01-08T13:46:06.468Z,948.2
2019-01-08T13:49:12.881Z,948.1
2019-01-08T13:52:18.946Z,948.1
2019-01-08T13:55:24.931Z,948.1
2019-01-08T13:58:31.015Z,948
2019-01-08T14:01:37.029Z,948
2019-01-08T14:04:42.999Z,947.9
2019-01-08T14:07:49.867Z,947.9
2019-01-08T14:10:57.926Z,947.9
2019-01-08T14:14:04.898Z,947.7
2019-01-08T14:17:10.918Z,947.7
2019-01-08T14:20:16.895Z,947.6
2019-01-08T14:23:22.784Z,947.5
2019-01-08T14:26:28.811Z,947.5
2019-01-08T14:29:34.712Z,947.5
2019-01-08T14:32:42.254Z,947.5
2019-01-08T14:35:48.312Z,947.3
2019-01-08T14:38:55.320Z,947.3
2019-01-08T14:42:04.279Z,947.3
2019-01-08T14:45:12.243Z,947.2
2019-01-08T14:48:18.217Z,947.2
2019-01-08T14:51:25.687Z,947.1
2019-01-08T14:54:31.747Z,947.1
2019-01-08T14:57:38.330Z,947
2019-01-08T15:00:44.384Z,947.1
2019-01-08T15:03:50.287Z,947
2019-01-08T15:06:56.303Z,946.9
2019-01-08T15:10:04.825Z,947
2019-01-08T15:13:10.719Z,947.1
2019-01-08T15:16:16.638Z,947.1
2019-01-08T15:19:25.738Z,947.1
2019-01-08T15:22:32.757Z,947
2019-01-08T15:25:38.715Z,947
2019-01-08T15:28:44.786Z,947
2019-01-08T15:31:50.682Z,947
2019-01-08T15:34:56.637Z,947
2019-01-08T15:38:02.657Z,946.9
2019-01-08T15:41:08.631Z,947
2019-01-08T15:44:16.727Z,946.9
2019-01-08T15:47:22.695Z,946.9
2019-01-08T15:50:28.765Z,946.7
2019-01-08T15:53:34.619Z,946.8
2019-01-08T15:56:40.715Z,946.9
2019-01-08T15:59:46.643Z,947
2019-01-08T16:02:52.801Z,947
2019-01-08T16:05:58.761Z,946.9
2019-01-08T16:09:05.680Z,946.8
2019-01-08T16:12:11.898Z,946.8
2019-01-08T16:15:17.906Z,946.8
2019-01-08T16:18:23.820Z,946.9
2019-01-08T16:21:29.783Z,946.8
2019-01-08T16:24:35.742Z,946.8
2019-01-08T16:27:41.677Z,946.9
2019-01-08T16:30:47.601Z,946.9
2019-01-08T16:33:53.768Z,947
2019-01-08T16:36:59.796Z,947
2019-01-08T16:40:05.991Z,947
2019-01-08T16:43:12.015Z,946.9
2019-01-08T16:46:17.971Z,946.9
2019-01-08T16:49:23.962Z,947
2019-01-08T16:52:29.831Z,947
2019-01-08T16:55:35.859Z,947
2019-01-08T16:58:41.904Z,946.9
2019-01-08T17:01:47.789Z,946.8
2019-01-08T17:04:53.827Z,946.9
2019-01-08T17:07:59.809Z,946.9
2019-01-08T17:11:05.740Z,946.9
2019-01-08T17:14:11.701Z,946.8
2019-01-08T17:17:17.658Z,946.9
2019-01-08T17:20:23.627Z,946.9
2019-01-08T17:23:29.586Z,946.8
2019-01-08T17:26:35.586Z,946.9
2019-01-08T17:29:41.605Z,946.8
2019-01-08T17:32:47.669Z,946.7
2019-01-08T17:35:53.555Z,946.6
2019-01-08T17:38:59.588Z,946.6
2019-01-08T17:42:05.543Z,946.5
2019-01-08T17:45:11.608Z,946.5
2019-01-08T17:48:17.492Z,946.6
2019-01-08T17:51:23.525Z,946.5
2019-01-08T17:54:29.580Z,946.5
2019-01-08T17:57:35.641Z,946.6
2019-01-08T18:00:41.558Z,946.6
2019-01-08T18:03:47.564Z,946.5
2019-01-08T18:06:53.441Z,946.5
2019-01-08T18:09:59.379Z,946.6
2019-01-08T18:13:05.283Z,946.5
2019-01-08T18:16:11.406Z,946.5
2019-01-08T18:19:17.332Z,946.5
2019-01-08T18:22:23.435Z,946.6
2019-01-08T18:25:29.442Z,946.4
2019-01-08T18:28:38.311Z,946.5
2019-01-08T18:31:44.380Z,946.6
2019-01-08T18:34:50.440Z,946.5
2019-01-08T18:37:56.344Z,946.4
2019-01-08T18:41:02.357Z,946.5
2019-01-08T18:44:08.332Z,946.4
2019-01-08T18:47:14.292Z,946.5
2019-01-08T18:50:20.227Z,946.4
2019-01-08T18:53:26.318Z,946.4
2019-01-08T18:56:32.253Z,946.5
2019-01-08T18:59:38.133Z,946.4
2019-01-08T19:02:44.173Z,946.5
2019-01-08T19:05:50.190Z,946.5
2019-01-08T19:08:56.365Z,946.4
2019-01-08T19:12:02.366Z,946.4
2019-01-08T19:15:08.335Z,946.5
2019-01-08T19:18:14.395Z,946.4
2019-01-08T19:21:20.275Z,946.3
2019-01-08T19:24:26.304Z,946.3
2019-01-08T19:27:32.364Z,946.2
2019-01-08T19:30:38.326Z,946.3
2019-01-08T19:33:44.205Z,946.1
2019-01-08T19:36:50.344Z,946.1
2019-01-08T19:39:56.224Z,946.1
2019-01-08T19:43:02.379Z,946.1
2019-01-08T19:46:08.434Z,946
2019-01-08T19:49:14.538Z,945.9
2019-01-08T19:52:20.557Z,945.9
2019-01-08T19:55:26.512Z,945.9
2019-01-08T19:58:32.522Z,945.9
2019-01-08T20:01:38.407Z,945.8
2019-01-08T20:04:44.387Z,945.8
2019-01-08T20:07:50.258Z,945.8
2019-01-08T20:10:56.308Z,945.8
2019-01-08T20:14:02.279Z,945.8
2019-01-08T20:17:08.225Z,945.7
2019-01-08T20:20:14.108Z,945.7
2019-01-08T20:23:20.049Z,945.8
2019-01-08T20:26:26.113Z,945.7
2019-01-08T20:29:31.989Z,945.7
2019-01-08T20:32:38.033Z,945.6
2019-01-08T20:35:43.903Z,945.6
2019-01-08T20:38:49.859Z,945.6
2019-01-08T20:41:55.740Z,945.6
2019-01-08T20:45:01.765Z,945.6
2019-01-08T20:48:07.740Z,945.6
2019-01-08T20:51:13.630Z,945.7
2019-01-08T20:54:19.539Z,945.6
2019-01-08T20:57:25.610Z,945.5
2019-01-08T21:00:31.664Z,945.4
2019-01-08T21:03:37.545Z,945.3
2019-01-08T21:06:46.344Z,945.3
2019-01-08T21:09:55.116Z,945.2
2019-01-08T21:13:01.026Z,945.3
2019-01-08T21:16:07.086Z,945.3
2019-01-08T21:19:13.045Z,945.3
2019-01-08T21:22:19.416Z,945.3
2019-01-08T21:25:25.457Z,945.3
2019-01-08T21:28:32.678Z,945.2
2019-01-08T21:31:38.540Z,945.2
2019-01-08T21:34:45.823Z,945.2
2019-01-08T21:37:51.721Z,945.3
2019-01-08T21:40:57.761Z,945.2
2019-01-08T21:44:03.794Z,945.2
2019-01-08T21:47:09.676Z,945.3
2019-01-08T21:50:15.613Z,945.2
2019-01-08T21:53:21.581Z,945.3
2019-01-08T21:56:27.580Z,945.3
2019-01-08T21:59:33.495Z,945.2
2019-01-08T22:02:39.558Z,945.1
2019-01-08T22:05:47.995Z,945.1
2019-01-08T22:08:54.035Z,945
2019-01-08T22:11:59.904Z,945.1
2019-01-08T22:15:05.807Z,945
2019-01-08T22:18:11.814Z,945
2019-01-08T22:21:17.765Z,945
2019-01-08T22:24:23.725Z,944.8
2019-01-08T22:27:29.811Z,944.8
2019-01-08T22:30:35.667Z,944.8
2019-01-08T22:33:41.712Z,944.8
2019-01-08T22:36:47.652Z,944.7
2019-01-08T22:39:53.629Z,944.7
2019-01-08T22:42:59.593Z,944.6
2019-01-08T22:46:08.280Z,944.6
2019-01-08T22:49:14.277Z,944.5
2019-01-08T22:52:20.229Z,944.5
2019-01-08T22:55:26.229Z,944.4
2019-01-08T22:58:32.146Z,944.4
2019-01-08T23:01:38.208Z,944.3
2019-01-08T23:04:44.167Z,944.3
2019-01-08T23:07:50.229Z,944.3
2019-01-08T23:10:56.109Z,944.3
2019-01-08T23:14:02.154Z,944.4
2019-01-08T23:17:08.111Z,944.3
2019-01-08T23:20:14.066Z,944.4
2019-01-08T23:23:19.941Z,944.4
2019-01-08T23:26:25.987Z,944.3
2019-01-08T23:29:32.049Z,944.3
2019-01-08T23:32:37.920Z,944.2
2019-01-08T23:35:43.865Z,944.3
2019-01-08T23:38:49.830Z,944.3
2019-01-08T23:41:55.703Z,944.2
2019-01-08T23:45:01.640Z,944.1
2019-01-08T23:48:09.444Z,944.3
2019-01-08T23:51:15.402Z,944.2
2019-01-08T23:54:21.361Z,944.1
2019-01-08T23:57:27.323Z,944.3
